sensor_id;sensor_type;location;lat;lon;timestamp;pressure;altitude;pressure_sealevel;temperature;humidity
66664;BME280;59683;51.428;-1.994;2023-07-31T00:00:43;100047.50;;;15.67;100.00
66664;BME280;59683;51.428;-1.994;2023-07-31T00:03:09;100036.19;;;15.65;100.00
66664;BME280;59683;51.428;-1.994;2023-07-31T00:05:35;100039.69;;;15.66;100.00
66664;BME280;59683;51.428;-1.994;2023-07-31T00:08:00;100043.69;;;15.70;100.00
66664;BME280;59683;51.428;-1.994;2023-07-31T00:10:26;100037.66;;;15.68;100.00
66664;BME280;59683;51.428;-1.994;2023-07-31T00:12:51;100026.66;;;15.71;100.00
66664;BME280;59683;51.428;-1.994;2023-07-31T00:15:16;100028.16;;;15.73;100.00
66664;BME280;59683;51.428;-1.994;2023-07-31T00:17:42;100020.16;;;15.73;100.00
66664;BME280;59683;51.428;-1.994;2023-07-31T00:20:08;100018.50;;;15.72;100.00
66664;BME280;59683;51.428;-1.994;2023-07-31T00:22:34;100016.47;;;15.74;100.00
66664;BME280;59683;51.428;-1.994;2023-07-31T00:24:59;100020.66;;;15.77;100.00
66664;BME280;59683;51.428;-1.994;2023-07-31T00:27:25;100017.50;;;15.73;100.00
66664;BME280;59683;51.428;-1.994;2023-07-31T00:29:50;100031.47;;;15.75;100.00
66664;BME280;59683;51.428;-1.994;2023-07-31T00:32:16;100031.47;;;15.75;100.00
66664;BME280;59683;51.428;-1.994;2023-07-31T00:34:41;100022.31;;;15.78;100.00
66664;BME280;59683;51.428;-1.994;2023-07-31T00:37:06;100019.66;;;15.78;100.00
66664;BME280;59683;51.428;-1.994;2023-07-31T00:39:33;100025.66;;;15.80;100.00
66664;BME280;59683;51.428;-1.994;2023-07-31T00:41:59;100007.13;;;15.78;100.00
66664;BME280;59683;51.428;-1.994;2023-07-31T00:44:24;100002.47;;;15.81;100.00
66664;BME280;59683;51.428;-1.994;2023-07-31T00:46:50;100006.97;;;15.80;100.00
66664;BME280;59683;51.428;-1.994;2023-07-31T00:49:16;99987.09;;;15.83;100.00
66664;BME280;59683;51.428;-1.994;2023-07-31T00:51:42;99981.78;;;15.83;100.00
66664;BME280;59683;51.428;-1.994;2023-07-31T00:54:07;99982.44;;;15.85;100.00
66664;BME280;59683;51.428;-1.994;2023-07-31T00:56:33;99965.41;;;15.86;100.00
66664;BME280;59683;51.428;-1.994;2023-07-31T00:58:58;99958.59;;;15.83;100.00
66664;BME280;59683;51.428;-1.994;2023-07-31T01:01:24;99954.94;;;15.84;100.00
66664;BME280;59683;51.428;-1.994;2023-07-31T01:03:50;99954.09;;;15.84;100.00
66664;BME280;59683;51.428;-1.994;2023-07-31T01:06:42;99971.78;;;15.85;100.00
66664;BME280;59683;51.428;-1.994;2023-07-31T01:11:59;99972.59;;;15.85;100.00
66664;BME280;59683;51.428;-1.994;2023-07-31T01:14:25;99976.91;;;15.86;100.00
66664;BME280;59683;51.428;-1.994;2023-07-31T01:16:50;99976.91;;;15.86;100.00
66664;BME280;59683;51.428;-1.994;2023-07-31T01:19:18;99965.41;;;15.86;100.00
66664;BME280;59683;51.428;-1.994;2023-07-31T01:27:21;99950.56;;;15.83;100.00
66664;BME280;59683;51.428;-1.994;2023-07-31T01:30:09;99935.91;;;15.87;100.00
66664;BME280;59683;51.428;-1.994;2023-07-31T01:32:40;99937.72;;;15.87;100.00
66664;BME280;59683;51.428;-1.994;2023-07-31T01:35:07;99943.06;;;15.87;100.00
66664;BME280;59683;51.428;-1.994;2023-07-31T01:37:33;99935.06;;;15.87;100.00
66664;BME280;59683;51.428;-1.994;2023-07-31T01:39:59;99929.72;;;15.87;100.00
66664;BME280;59683;51.428;-1.994;2023-07-31T01:42:24;99929.56;;;15.88;100.00
66664;BME280;59683;51.428;-1.994;2023-07-31T01:44:49;99919.53;;;15.90;100.00
66664;BME280;59683;51.428;-1.994;2023-07-31T01:47:15;99921.38;;;15.90;100.00
66664;BME280;59683;51.428;-1.994;2023-07-31T01:49:40;99918.72;;;15.90;100.00
66664;BME280;59683;51.428;-1.994;2023-07-31T01:52:06;99920.22;;;15.92;100.00
66664;BME280;59683;51.428;-1.994;2023-07-31T01:54:31;99911.53;;;15.90;100.00
66664;BME280;59683;51.428;-1.994;2023-07-31T01:56:56;99913.03;;;15.93;100.00
66664;BME280;59683;51.428;-1.994;2023-07-31T01:59:22;99914.88;;;15.92;100.00
66664;BME280;59683;51.428;-1.994;2023-07-31T02:01:47;99912.00;;;15.94;100.00
66664;BME280;59683;51.428;-1.994;2023-07-31T02:04:13;99915.50;;;15.94;100.00
66664;BME280;59683;51.428;-1.994;2023-07-31T02:06:39;99893.53;;;15.92;100.00
66664;BME280;59683;51.428;-1.994;2023-07-31T02:09:04;99911.84;;;15.95;100.00
66664;BME280;59683;51.428;-1.994;2023-07-31T02:11:29;99906.81;;;16.00;100.00
66664;BME280;59683;51.428;-1.994;2023-07-31T02:13:55;99895.50;;;15.98;100.00
66664;BME280;59683;51.428;-1.994;2023-07-31T02:16:20;99892.84;;;15.98;100.00
66664;BME280;59683;51.428;-1.994;2023-07-31T02:18:45;99894.31;;;16.01;100.00
66664;BME280;59683;51.428;-1.994;2023-07-31T02:21:11;99896.31;;;15.99;100.00
66664;BME280;59683;51.428;-1.994;2023-07-31T02:23:36;99900.66;;;16.00;100.00
66664;BME280;59683;51.428;-1.994;2023-07-31T02:26:02;99893.66;;;15.99;100.00
66664;BME280;59683;51.428;-1.994;2023-07-31T02:28:29;99894.97;;;16.03;100.00
66664;BME280;59683;51.428;-1.994;2023-07-31T02:30:54;99894.16;;;16.02;100.00
66664;BME280;59683;51.428;-1.994;2023-07-31T02:33:19;99881.78;;;16.01;100.00
66664;BME280;59683;51.428;-1.994;2023-07-31T02:35:45;99885.75;;;16.06;100.00
66664;BME280;59683;51.428;-1.994;2023-07-31T02:38:10;99890.94;;;16.07;100.00
66664;BME280;59683;51.428;-1.994;2023-07-31T02:40:36;99872.41;;;16.06;100.00
66664;BME280;59683;51.428;-1.994;2023-07-31T02:43:01;99873.44;;;16.05;100.00
66664;BME280;59683;51.428;-1.994;2023-07-31T02:45:27;99877.59;;;16.07;100.00
66664;BME280;59683;51.428;-1.994;2023-07-31T02:47:52;99876.59;;;16.08;100.00
66664;BME280;59683;51.428;-1.994;2023-07-31T02:50:17;99868.28;;;16.03;100.00
66664;BME280;59683;51.428;-1.994;2023-07-31T02:52:43;99867.25;;;16.04;100.00
66664;BME280;59683;51.428;-1.994;2023-07-31T02:55:08;99859.25;;;16.04;100.00
66664;BME280;59683;51.428;-1.994;2023-07-31T02:57:34;99855.09;;;16.01;100.00
66664;BME280;59683;51.428;-1.994;2023-07-31T02:59:59;99861.94;;;16.04;100.00
66664;BME280;59683;51.428;-1.994;2023-07-31T03:02:24;99855.56;;;16.05;100.00
66664;BME280;59683;51.428;-1.994;2023-07-31T03:04:50;99865.63;;;16.03;100.00
66664;BME280;59683;51.428;-1.994;2023-07-31T03:07:15;99861.09;;;16.03;100.00
66664;BME280;59683;51.428;-1.994;2023-07-31T03:09:40;99860.28;;;16.03;100.00
66664;BME280;59683;51.428;-1.994;2023-07-31T03:12:06;99862.13;;;16.02;100.00
66664;BME280;59683;51.428;-1.994;2023-07-31T03:14:32;99859.25;;;16.04;100.00
66664;BME280;59683;51.428;-1.994;2023-07-31T03:16:57;99856.59;;;16.04;100.00
66664;BME280;59683;51.428;-1.994;2023-07-31T03:19:23;99855.91;;;16.02;100.00
66664;BME280;59683;51.428;-1.994;2023-07-31T03:21:48;99860.44;;;16.01;100.00
66664;BME280;59683;51.428;-1.994;2023-07-31T03:24:13;99864.59;;;16.04;100.00
66664;BME280;59683;51.428;-1.994;2023-07-31T03:26:39;99869.09;;;16.03;100.00
66664;BME280;59683;51.428;-1.994;2023-07-31T03:29:06;99862.13;;;16.02;100.00
66664;BME280;59683;51.428;-1.994;2023-07-31T03:31:32;99869.59;;;16.07;100.00
66664;BME280;59683;51.428;-1.994;2023-07-31T03:33:57;99872.59;;;16.04;100.00
66664;BME280;59683;51.428;-1.994;2023-07-31T03:36:25;99870.59;;;16.06;100.00
66664;BME280;59683;51.428;-1.994;2023-07-31T03:38:52;99861.75;;;16.06;100.00
66664;BME280;59683;51.428;-1.994;2023-07-31T03:41:17;99859.78;;;15.99;100.00
66664;BME280;59683;51.428;-1.994;2023-07-31T03:43:42;99866.59;;;16.02;100.00
66664;BME280;59683;51.428;-1.994;2023-07-31T03:46:08;99856.94;;;16.01;100.00
66664;BME280;59683;51.428;-1.994;2023-07-31T03:48:33;99862.47;;;15.99;100.00
66664;BME280;59683;51.428;-1.994;2023-07-31T03:50:59;99865.47;;;15.96;100.00
66664;BME280;59683;51.428;-1.994;2023-07-31T03:53:24;99854.31;;;15.93;100.00
66664;BME280;59683;51.428;-1.994;2023-07-31T03:55:49;99862.13;;;15.94;100.00
66664;BME280;59683;51.428;-1.994;2023-07-31T03:58:15;99858.97;;;15.91;100.00
66664;BME280;59683;51.428;-1.994;2023-07-31T04:00:40;99862.66;;;15.90;100.00
66664;BME280;59683;51.428;-1.994;2023-07-31T04:03:06;99863.19;;;15.85;100.00
66664;BME280;59683;51.428;-1.994;2023-07-31T04:05:32;99875.38;;;15.88;100.00
66664;BME280;59683;51.428;-1.994;2023-07-31T04:07:58;99877.03;;;15.89;100.00
66664;BME280;59683;51.428;-1.994;2023-07-31T04:10:23;99871.88;;;15.87;100.00
66664;BME280;59683;51.428;-1.994;2023-07-31T04:12:49;99879.88;;;15.87;100.00
66664;BME280;59683;51.428;-1.994;2023-07-31T04:15:14;99882.69;;;15.86;100.00
66664;BME280;59683;51.428;-1.994;2023-07-31T04:17:39;99880.38;;;15.83;100.00
66664;BME280;59683;51.428;-1.994;2023-07-31T04:20:05;99879.72;;;15.81;100.00
66664;BME280;59683;51.428;-1.994;2023-07-31T04:22:31;99885.06;;;15.81;100.00
66664;BME280;59683;51.428;-1.994;2023-07-31T04:24:56;99878.53;;;15.83;100.00
66664;BME280;59683;51.428;-1.994;2023-07-31T04:27:22;99882.41;;;15.81;100.00
66664;BME280;59683;51.428;-1.994;2023-07-31T04:29:47;99865.41;;;15.73;100.00
66664;BME280;59683;51.428;-1.994;2023-07-31T04:32:13;99873.09;;;15.76;100.00
66664;BME280;59683;51.428;-1.994;2023-07-31T04:34:40;99879.59;;;15.74;100.00
66664;BME280;59683;51.428;-1.994;2023-07-31T04:37:06;99870.09;;;15.71;100.00
66664;BME280;59683;51.428;-1.994;2023-07-31T04:39:31;99872.75;;;15.71;100.00
66664;BME280;59683;51.428;-1.994;2023-07-31T04:41:56;99867.13;;;15.66;100.00
66664;BME280;59683;51.428;-1.994;2023-07-31T04:44:22;99874.78;;;15.69;100.00
66664;BME280;59683;51.428;-1.994;2023-07-31T04:46:47;99869.44;;;15.69;100.00
66664;BME280;59683;51.428;-1.994;2023-07-31T04:49:12;99870.47;;;15.68;100.00
66664;BME280;59683;51.428;-1.994;2023-07-31T04:51:38;99870.59;;;15.67;100.00
66664;BME280;59683;51.428;-1.994;2023-07-31T04:54:03;99857.59;;;15.64;100.00
66664;BME280;59683;51.428;-1.994;2023-07-31T04:56:29;99863.44;;;15.67;100.00
66664;BME280;59683;51.428;-1.994;2023-07-31T04:58:54;99865.28;;;15.67;100.00
66664;BME280;59683;51.428;-1.994;2023-07-31T05:01:20;99865.28;;;15.67;100.00
66664;BME280;59683;51.428;-1.994;2023-07-31T05:03:45;99869.44;;;15.69;100.00
66664;BME280;59683;51.428;-1.994;2023-07-31T05:06:10;99876.44;;;15.70;100.00
66664;BME280;59683;51.428;-1.994;2023-07-31T05:08:37;99881.13;;;15.68;100.00
66664;BME280;59683;51.428;-1.994;2023-07-31T05:11:02;99878.47;;;15.68;100.00
66664;BME280;59683;51.428;-1.994;2023-07-31T05:13:28;99871.94;;;15.71;100.00
66664;BME280;59683;51.428;-1.994;2023-07-31T05:15:53;99866.44;;;15.72;100.00
66664;BME280;59683;51.428;-1.994;2023-07-31T05:18:19;99863.59;;;15.74;100.00
66664;BME280;59683;51.428;-1.994;2023-07-31T05:20:44;99869.22;;;15.79;100.00
66664;BME280;59683;51.428;-1.994;2023-07-31T05:23:10;99875.38;;;15.79;100.00
66664;BME280;59683;51.428;-1.994;2023-07-31T05:25:35;99857.38;;;15.82;100.00
66664;BME280;59683;51.428;-1.994;2023-07-31T05:28:00;99845.38;;;15.77;100.00
66664;BME280;59683;51.428;-1.994;2023-07-31T05:30:26;99857.19;;;15.83;100.00
66664;BME280;59683;51.428;-1.994;2023-07-31T05:32:52;99861.69;;;15.83;100.00
66664;BME280;59683;51.428;-1.994;2023-07-31T05:35:17;99860.19;;;15.88;100.00
66664;BME280;59683;51.428;-1.994;2023-07-31T05:37:42;99858.34;;;15.89;100.00
66664;BME280;59683;51.428;-1.994;2023-07-31T05:40:08;99852.00;;;15.90;100.00
66664;BME280;59683;51.428;-1.994;2023-07-31T05:42:33;99848.19;;;15.84;100.00
66664;BME280;59683;51.428;-1.994;2023-07-31T05:44:59;99846.88;;;15.80;100.00
66664;BME280;59683;51.428;-1.994;2023-07-31T05:47:25;99840.88;;;15.78;100.00
66664;BME280;59683;51.428;-1.994;2023-07-31T05:49:50;99846.41;;;15.76;100.00
66664;BME280;59683;51.428;-1.994;2023-07-31T05:52:18;99851.75;;;15.76;100.00
66664;BME280;59683;51.428;-1.994;2023-07-31T05:54:43;99844.56;;;15.77;100.00
66664;BME280;59683;51.428;-1.994;2023-07-31T05:57:09;99856.69;;;15.79;100.00
66664;BME280;59683;51.428;-1.994;2023-07-31T05:59:34;99857.38;;;15.82;100.00
66664;BME280;59683;51.428;-1.994;2023-07-31T06:02:00;99862.53;;;15.83;100.00
66664;BME280;59683;51.428;-1.994;2023-07-31T06:04:25;99856.69;;;15.79;100.00
66664;BME280;59683;51.428;-1.994;2023-07-31T06:06:51;99860.22;;;15.80;100.00
66664;BME280;59683;51.428;-1.994;2023-07-31T06:09:16;99845.03;;;15.81;100.00
66664;BME280;59683;51.428;-1.994;2023-07-31T06:11:42;99827.69;;;15.85;100.00
66664;BME280;59683;51.428;-1.994;2023-07-31T06:14:07;99809.78;;;15.93;100.00
66664;BME280;59683;51.428;-1.994;2023-07-31T06:16:33;99809.72;;;16.01;100.00
66664;BME280;59683;51.428;-1.994;2023-07-31T06:18:58;99820.34;;;16.10;100.00
66664;BME280;59683;51.428;-1.994;2023-07-31T06:21:23;99823.25;;;16.23;100.00
66664;BME280;59683;51.428;-1.994;2023-07-31T06:23:49;99808.47;;;16.35;100.00
66664;BME280;59683;51.428;-1.994;2023-07-31T06:26:14;99800.41;;;16.43;100.00
66664;BME280;59683;51.428;-1.994;2023-07-31T06:28:39;99796.81;;;16.51;100.00
66664;BME280;59683;51.428;-1.994;2023-07-31T06:31:05;99790.66;;;16.50;100.00
66664;BME280;59683;51.428;-1.994;2023-07-31T06:33:30;99791.78;;;16.56;100.00
66664;BME280;59683;51.428;-1.994;2023-07-31T06:35:56;99784.41;;;16.58;100.00
66664;BME280;59683;51.428;-1.994;2023-07-31T06:38:25;99781.38;;;16.61;100.00
66664;BME280;59683;51.428;-1.994;2023-07-31T06:40:51;99780.00;;;16.65;100.00
66664;BME280;59683;51.428;-1.994;2023-07-31T06:43:16;99790.34;;;16.68;100.00
66664;BME280;59683;51.428;-1.994;2023-07-31T06:45:42;99792.19;;;16.68;100.00
66664;BME280;59683;51.428;-1.994;2023-07-31T06:48:07;99782.00;;;16.86;100.00
66664;BME280;59683;51.428;-1.994;2023-07-31T06:50:33;99768.44;;;16.88;100.00
66664;BME280;59683;51.428;-1.994;2023-07-31T06:52:58;99770.78;;;17.06;100.00
66664;BME280;59683;51.428;-1.994;2023-07-31T06:55:24;99749.13;;;17.15;100.00
66664;BME280;59683;51.428;-1.994;2023-07-31T06:57:51;99741.81;;;17.24;100.00
66664;BME280;59683;51.428;-1.994;2023-07-31T07:00:18;99745.50;;;17.38;100.00
66664;BME280;59683;51.428;-1.994;2023-07-31T07:02:44;99752.66;;;17.37;100.00
66664;BME280;59683;51.428;-1.994;2023-07-31T07:05:10;99743.81;;;17.37;100.00
66664;BME280;59683;51.428;-1.994;2023-07-31T07:07:35;99752.84;;;17.36;100.00
66664;BME280;59683;51.428;-1.994;2023-07-31T07:10:01;99753.22;;;17.33;100.00
66664;BME280;59683;51.428;-1.994;2023-07-31T07:12:31;99752.28;;;17.40;100.00
66664;BME280;59683;51.428;-1.994;2023-07-31T07:14:56;99759.22;;;17.35;100.00
66664;BME280;59683;51.428;-1.994;2023-07-31T07:17:23;99757.00;;;17.38;100.00
66664;BME280;59683;51.428;-1.994;2023-07-31T07:19:48;99734.09;;;17.51;100.00
66664;BME280;59683;51.428;-1.994;2023-07-31T07:22:14;99730.47;;;17.58;100.00
66664;BME280;59683;51.428;-1.994;2023-07-31T07:24:42;99740.91;;;17.68;100.00
66664;BME280;59683;51.428;-1.994;2023-07-31T07:27:08;99733.84;;;17.82;100.00
66664;BME280;59683;51.428;-1.994;2023-07-31T07:29:34;99732.09;;;17.74;100.00
66664;BME280;59683;51.428;-1.994;2023-07-31T07:32:00;99730.34;;;17.66;100.00
66664;BME280;59683;51.428;-1.994;2023-07-31T07:34:26;99716.66;;;17.55;100.00
66664;BME280;59683;51.428;-1.994;2023-07-31T07:36:52;99714.63;;;17.57;100.00
66664;BME280;59683;51.428;-1.994;2023-07-31T07:39:18;99706.84;;;17.62;100.00
66664;BME280;59683;51.428;-1.994;2023-07-31T07:41:44;99698.44;;;17.65;100.00
66664;BME280;59683;51.428;-1.994;2023-07-31T07:44:09;99706.69;;;17.85;100.00
66664;BME280;59683;51.428;-1.994;2023-07-31T07:46:35;99705.66;;;18.07;100.00
66664;BME280;59683;51.428;-1.994;2023-07-31T07:49:00;99702.16;;;18.07;100.00
66664;BME280;59683;51.428;-1.994;2023-07-31T07:51:26;99700.97;;;18.09;100.00
66664;BME280;59683;51.428;-1.994;2023-07-31T07:53:51;99699.41;;;18.22;100.00
66664;BME280;59683;51.428;-1.994;2023-07-31T07:56:17;99696.78;;;18.28;100.00
66664;BME280;59683;51.428;-1.994;2023-07-31T07:58:42;99696.28;;;18.18;100.00
66664;BME280;59683;51.428;-1.994;2023-07-31T08:01:08;99688.94;;;18.27;100.00
66664;BME280;59683;51.428;-1.994;2023-07-31T08:03:33;99695.22;;;18.40;100.00
66664;BME280;59683;51.428;-1.994;2023-07-31T08:05:59;99688.44;;;18.44;100.00
66664;BME280;59683;51.428;-1.994;2023-07-31T08:08:25;99693.44;;;18.48;100.00
66664;BME280;59683;51.428;-1.994;2023-07-31T08:10:50;99700.38;;;18.42;100.00
66664;BME280;59683;51.428;-1.994;2023-07-31T08:13:16;99711.00;;;18.29;100.00
66664;BME280;59683;51.428;-1.994;2023-07-31T08:15:47;99713.84;;;18.20;100.00
66664;BME280;59683;51.428;-1.994;2023-07-31T08:18:17;99707.53;;;18.07;100.00
66664;BME280;59683;51.428;-1.994;2023-07-31T08:20:42;99700.84;;;17.96;100.00
66664;BME280;59683;51.428;-1.994;2023-07-31T08:23:08;99693.69;;;17.82;100.00
66664;BME280;59683;51.428;-1.994;2023-07-31T08:25:36;99687.81;;;17.71;100.00
66664;BME280;59683;51.428;-1.994;2023-07-31T08:28:03;99690.28;;;17.73;100.00
66664;BME280;59683;51.428;-1.994;2023-07-31T08:30:28;99677.22;;;17.63;100.00
66664;BME280;59683;51.428;-1.994;2023-07-31T08:32:54;99664.50;;;17.65;100.00
66664;BME280;59683;51.428;-1.994;2023-07-31T08:35:20;99651.66;;;17.76;100.00
66664;BME280;59683;51.428;-1.994;2023-07-31T08:37:45;99652.34;;;17.84;100.00
66664;BME280;59683;51.428;-1.994;2023-07-31T08:40:10;99648.78;;;18.05;100.00
66664;BME280;59683;51.428;-1.994;2023-07-31T08:42:46;99656.41;;;18.30;100.00
66664;BME280;59683;51.428;-1.994;2023-07-31T08:45:18;99642.78;;;18.59;100.00
66664;BME280;59683;51.428;-1.994;2023-07-31T08:47:45;99637.16;;;18.82;100.00
66664;BME280;59683;51.428;-1.994;2023-07-31T08:50:15;99638.31;;;19.08;100.00
66664;BME280;59683;51.428;-1.994;2023-07-31T08:52:41;99649.75;;;19.43;100.00
66664;BME280;59683;51.428;-1.994;2023-07-31T08:55:07;99670.06;;;19.72;100.00
66664;BME280;59683;51.428;-1.994;2023-07-31T08:57:35;99676.00;;;19.61;100.00
66664;BME280;59683;51.428;-1.994;2023-07-31T09:00:01;99658.50;;;19.65;100.00
66664;BME280;59683;51.428;-1.994;2023-07-31T09:02:34;99637.03;;;19.78;100.00
66664;BME280;59683;51.428;-1.994;2023-07-31T09:05:01;99640.13;;;19.95;100.00
66664;BME280;59683;51.428;-1.994;2023-07-31T09:07:28;99651.09;;;20.13;100.00
66664;BME280;59683;51.428;-1.994;2023-07-31T09:09:54;99646.13;;;20.04;100.00
66664;BME280;59683;51.428;-1.994;2023-07-31T09:12:19;99647.97;;;19.83;100.00
66664;BME280;59683;51.428;-1.994;2023-07-31T09:14:45;99665.31;;;19.68;100.00
66664;BME280;59683;51.428;-1.994;2023-07-31T09:17:12;99672.56;;;19.67;100.00
66664;BME280;59683;51.428;-1.994;2023-07-31T09:19:37;99668.56;;;19.56;100.00
66664;BME280;59683;51.428;-1.994;2023-07-31T09:22:04;99679.72;;;19.53;100.00
66664;BME280;59683;51.428;-1.994;2023-07-31T09:24:31;99653.66;;;19.40;100.00
66664;BME280;59683;51.428;-1.994;2023-07-31T09:26:58;99638.16;;;19.36;100.00
66664;BME280;59683;51.428;-1.994;2023-07-31T09:29:24;99652.31;;;19.64;100.00
66664;BME280;59683;51.428;-1.994;2023-07-31T09:31:52;99652.72;;;19.88;100.00
66664;BME280;59683;51.428;-1.994;2023-07-31T09:34:18;99668.41;;;19.64;100.00
66664;BME280;59683;51.428;-1.994;2023-07-31T15:38:56;99453.97;;;23.89;100.00
66664;BME280;59683;51.428;-1.994;2023-07-31T15:41:22;99456.75;;;24.06;100.00
66664;BME280;59683;51.428;-1.994;2023-07-31T15:43:48;99448.69;;;24.91;100.00
66664;BME280;59683;51.428;-1.994;2023-07-31T15:46:14;99433.81;;;24.60;100.00
66664;BME280;59683;51.428;-1.994;2023-07-31T15:48:39;99435.09;;;24.58;100.00
66664;BME280;59683;51.428;-1.994;2023-07-31T15:51:05;99433.03;;;24.93;100.00
66664;BME280;59683;51.428;-1.994;2023-07-31T15:53:30;99439.25;;;24.77;100.00
66664;BME280;59683;51.428;-1.994;2023-07-31T15:55:56;99437.53;;;24.42;100.00
66664;BME280;59683;51.428;-1.994;2023-07-31T15:58:22;99440.44;;;24.01;100.00
66664;BME280;59683;51.428;-1.994;2023-07-31T16:00:47;99434.75;;;23.73;100.00
66664;BME280;59683;51.428;-1.994;2023-07-31T16:03:13;99431.38;;;23.13;100.00
66664;BME280;59683;51.428;-1.994;2023-07-31T16:05:38;99432.00;;;22.43;100.00
66664;BME280;59683;51.428;-1.994;2023-07-31T16:08:04;99445.84;;;21.91;100.00
66664;BME280;59683;51.428;-1.994;2023-07-31T16:10:29;99436.09;;;21.53;100.00
66664;BME280;59683;51.428;-1.994;2023-07-31T16:12:55;99432.09;;;22.18;100.00
66664;BME280;59683;51.428;-1.994;2023-07-31T16:15:20;99428.47;;;22.72;100.00
66664;BME280;59683;51.428;-1.994;2023-07-31T16:17:46;99446.38;;;22.67;100.00
66664;BME280;59683;51.428;-1.994;2023-07-31T16:20:11;99431.03;;;22.37;100.00
66664;BME280;59683;51.428;-1.994;2023-07-31T16:22:37;99423.13;;;22.05;100.00
66664;BME280;59683;51.428;-1.994;2023-07-31T16:25:03;99434.09;;;22.04;100.00
66664;BME280;59683;51.428;-1.994;2023-07-31T16:27:28;99430.59;;;22.03;100.00
66664;BME280;59683;51.428;-1.994;2023-07-31T16:29:54;99428.19;;;21.77;100.00
66664;BME280;59683;51.428;-1.994;2023-07-31T16:32:19;99417.50;;;21.89;100.00
66664;BME280;59683;51.428;-1.994;2023-07-31T16:34:44;99410.41;;;21.76;100.00
66664;BME280;59683;51.428;-1.994;2023-07-31T16:37:10;99413.47;;;21.61;100.00
66664;BME280;59683;51.428;-1.994;2023-07-31T16:39:35;99413.22;;;21.44;100.00
66664;BME280;59683;51.428;-1.994;2023-07-31T16:42:05;99409.03;;;21.48;100.00
66664;BME280;59683;51.428;-1.994;2023-07-31T16:44:30;99414.41;;;21.23;100.00
66664;BME280;59683;51.428;-1.994;2023-07-31T16:46:56;99416.75;;;21.13;100.00
66664;BME280;59683;51.428;-1.994;2023-07-31T16:49:21;99405.91;;;20.76;100.00
66664;BME280;59683;51.428;-1.994;2023-07-31T16:51:47;99411.28;;;20.76;100.00
66664;BME280;59683;51.428;-1.994;2023-07-31T16:54:13;99409.34;;;21.08;100.00
66664;BME280;59683;51.428;-1.994;2023-07-31T16:56:39;99401.94;;;21.29;100.00
66664;BME280;59683;51.428;-1.994;2023-07-31T16:59:04;99394.16;;;21.64;100.00
66664;BME280;59683;51.428;-1.994;2023-07-31T17:01:29;99390.09;;;22.28;100.00
66664;BME280;59683;51.428;-1.994;2023-07-31T17:03:57;99390.09;;;23.00;100.00
66664;BME280;59683;51.428;-1.994;2023-07-31T17:06:25;99382.59;;;23.14;100.00
66664;BME280;59683;51.428;-1.994;2023-07-31T17:08:51;99393.72;;;23.53;100.00
66664;BME280;59683;51.428;-1.994;2023-07-31T17:11:16;99392.56;;;24.70;100.00
66664;BME280;59683;51.428;-1.994;2023-07-31T17:13:42;99394.09;;;25.67;100.00
66664;BME280;59683;51.428;-1.994;2023-07-31T17:16:07;99388.59;;;27.46;100.00
66664;BME280;59683;51.428;-1.994;2023-07-31T17:18:33;99393.00;;;27.15;93.94
66664;BME280;59683;51.428;-1.994;2023-07-31T17:20:58;99386.81;;;26.33;100.00
66664;BME280;59683;51.428;-1.994;2023-07-31T17:23:23;99387.63;;;26.34;100.00
66664;BME280;59683;51.428;-1.994;2023-07-31T17:25:49;99389.28;;;25.52;100.00
66664;BME280;59683;51.428;-1.994;2023-07-31T17:28:14;99382.97;;;24.62;100.00
66664;BME280;59683;51.428;-1.994;2023-07-31T17:30:39;99369.56;;;23.70;100.00
66664;BME280;59683;51.428;-1.994;2023-07-31T17:33:05;99373.72;;;22.72;100.00
66664;BME280;59683;51.428;-1.994;2023-07-31T17:35:30;99367.97;;;22.08;100.00
66664;BME280;59683;51.428;-1.994;2023-07-31T17:37:58;99368.56;;;21.55;100.00
66664;BME280;59683;51.428;-1.994;2023-07-31T17:40:23;99375.59;;;21.13;100.00
66664;BME280;59683;51.428;-1.994;2023-07-31T17:42:49;99377.34;;;21.00;100.00
66664;BME280;59683;51.428;-1.994;2023-07-31T17:45:14;99368.88;;;20.72;100.00
66664;BME280;59683;51.428;-1.994;2023-07-31T17:47:41;99380.47;;;20.34;100.00
66664;BME280;59683;51.428;-1.994;2023-07-31T17:50:07;99376.50;;;20.05;100.00
66664;BME280;59683;51.428;-1.994;2023-07-31T17:52:33;99366.06;;;19.83;100.00
66664;BME280;59683;51.428;-1.994;2023-07-31T17:54:59;99365.47;;;19.75;100.00
66664;BME280;59683;51.428;-1.994;2023-07-31T17:57:25;99358.69;;;19.65;100.00
66664;BME280;59683;51.428;-1.994;2023-07-31T17:59:50;99358.56;;;19.99;100.00
66664;BME280;59683;51.428;-1.994;2023-07-31T18:02:15;99358.69;;;20.17;100.00
66664;BME280;59683;51.428;-1.994;2023-07-31T18:04:41;99358.94;;;20.41;100.00
66664;BME280;59683;51.428;-1.994;2023-07-31T18:07:06;99357.19;;;20.28;100.00
66664;BME280;59683;51.428;-1.994;2023-07-31T18:09:31;99355.34;;;20.22;100.00
66664;BME280;59683;51.428;-1.994;2023-07-31T18:11:59;99343.97;;;20.20;100.00
66664;BME280;59683;51.428;-1.994;2023-07-31T18:14:24;99347.00;;;19.98;100.00
66664;BME280;59683;51.428;-1.994;2023-07-31T18:16:51;99349.78;;;19.72;100.00
66664;BME280;59683;51.428;-1.994;2023-07-31T18:19:17;99339.94;;;19.32;100.00
66664;BME280;59683;51.428;-1.994;2023-07-31T18:21:42;99342.06;;;18.84;100.00
66664;BME280;59683;51.428;-1.994;2023-07-31T18:24:07;99343.91;;;18.63;100.00
66664;BME280;59683;51.428;-1.994;2023-07-31T18:26:34;99355.41;;;18.44;100.00
66664;BME280;59683;51.428;-1.994;2023-07-31T18:29:01;99361.59;;;18.38;100.00
66664;BME280;59683;51.428;-1.994;2023-07-31T18:31:27;99356.84;;;18.33;100.00
66664;BME280;59683;51.428;-1.994;2023-07-31T18:33:52;99354.34;;;18.18;100.00
66664;BME280;59683;51.428;-1.994;2023-07-31T18:36:18;99362.31;;;18.05;100.00
66664;BME280;59683;51.428;-1.994;2023-07-31T18:38:43;99359.78;;;17.84;100.00
66664;BME280;59683;51.428;-1.994;2023-07-31T18:41:09;99353.50;;;17.70;100.00
66664;BME280;59683;51.428;-1.994;2023-07-31T18:43:34;99361.88;;;17.54;100.00